Time;durP1;ratioP1;P1;durP2;ratioP2;P2;SDS_P1;SDS_P2;PMS_P1;PMS_P2;Temp;Humidity;BMP_temperature;BMP_pressure;BME280_temperature;BME280_humidity;BME280_pressure;Samples;Min_cycle;Max_cycle;Signal;HPM_P1;HPM_P2
2023/03/31 00:01:53;;;;;;;8.00;4.10;;;9.60;99.90;8.80;98926;;;;597091;236;24042;-75
2023/03/31 00:04:22;;;;;;;4.80;4.00;;;9.50;99.90;8.80;98918;;;;601184;236;24051;-77
2023/03/31 00:06:48;;;;;;;5.20;4.47;;;9.50;99.90;8.80;98910;;;;596899;236;24073;-75
2023/03/31 00:09:20;;;;;;;10.93;4.67;;;9.50;99.90;8.80;98918;;;;597144;236;24033;-77
2023/03/31 00:11:43;;;;;;;6.53;4.40;;;9.50;99.90;8.80;98916;;;;596673;236;24030;-76
2023/03/31 00:14:14;;;;;;;7.37;3.60;;;9.60;99.90;8.80;98914;;;;596626;236;24052;-75
2023/03/31 00:16:40;;;;;;;5.37;4.37;;;9.50;99.90;8.80;98909;;;;596437;236;24052;-77
2023/03/31 00:19:11;;;;;;;5.27;3.07;;;9.50;99.90;8.80;98918;;;;596712;236;24155;-77
2023/03/31 00:21:36;;;;;;;5.50;3.57;;;9.50;99.90;8.80;98914;;;;606075;236;24058;-77
2023/03/31 00:24:04;;;;;;;8.27;4.37;;;9.50;99.90;8.80;98912;;;;606352;236;24059;-75
2023/03/31 00:26:32;;;;;;;6.73;3.67;;;9.50;99.90;8.80;98903;;;;606216;236;24065;-76
2023/03/31 00:29:00;;;;;;;11.77;4.23;;;9.50;99.90;8.80;98911;;;;605839;236;24062;-75
2023/03/31 00:31:28;;;;;;;9.70;3.73;;;9.50;99.90;8.70;98923;;;;596303;236;24070;-76
2023/03/31 00:33:56;;;;;;;10.57;3.30;;;9.40;99.90;8.70;98911;;;;605825;236;24041;-75
2023/03/31 00:36:27;;;;;;;8.57;3.20;;;9.50;99.90;8.70;98917;;;;596373;236;24101;-77
2023/03/31 00:38:55;;;;;;;6.40;3.30;;;11.90;99.90;8.70;98923;;;;596525;236;26251;-76
2023/03/31 00:41:22;;;;;;;8.03;3.63;;;9.50;99.90;8.70;98931;;;;600775;236;24044;-76
2023/03/31 00:44:05;;;;;;;6.83;3.70;;;9.50;99.90;8.70;98929;;;;596750;236;24019;-76
2023/03/31 00:46:42;;;;;;;9.27;3.90;;;9.50;99.90;8.70;98932;;;;605745;236;24054;-76
2023/03/31 00:49:16;;;;;;;6.47;3.20;;;9.50;99.90;8.70;98927;;;;607152;235;24110;-76
2023/03/31 00:51:46;;;;;;;3.87;3.20;;;9.50;99.90;8.70;98918;;;;606677;236;24018;-76
2023/03/31 00:54:11;;;;;;;8.87;4.57;;;9.50;99.90;8.70;98926;;;;591997;236;34908;-77
2023/03/31 00:56:39;;;;;;;6.97;4.20;;;9.50;99.90;8.70;98921;;;;595809;236;24049;-75
2023/03/31 00:59:07;;;;;;;9.30;4.47;;;9.40;99.90;8.70;98934;;;;606304;233;24067;-75
2023/03/31 01:01:38;;;;;;;6.30;3.60;;;9.50;99.90;8.70;98939;;;;606370;236;24039;-76
2023/03/31 01:04:03;;;;;;;4.93;3.00;;;9.50;99.90;8.70;98923;;;;596519;236;24122;-77
2023/03/31 01:06:31;;;;;;;7.13;4.20;;;9.40;99.90;8.70;98934;;;;596764;236;25207;-76
2023/03/31 01:08:59;;;;;;;9.90;3.83;;;9.50;99.90;8.70;98921;;;;606152;236;24096;-75
2023/03/31 01:11:30;;;;;;;4.90;3.27;;;9.40;99.90;8.70;98927;;;;596654;236;24065;-75
2023/03/31 01:13:55;;;;;;;4.63;2.87;;;9.40;99.90;8.60;98931;;;;596288;236;24064;-75
2023/03/31 01:16:22;;;;;;;7.60;3.10;;;9.40;99.90;8.60;98929;;;;596355;236;24071;-80
2023/03/31 01:18:50;;;;;;;13.37;4.10;;;9.40;99.90;8.60;98941;;;;596680;236;24100;-78
2023/03/31 01:21:46;;;;;;;5.23;3.33;;;9.30;99.90;8.60;98936;;;;596609;236;24039;-78
2023/03/31 01:24:46;;;;;;;9.60;3.13;;;9.30;99.90;8.50;98936;;;;596565;236;24139;-80
2023/03/31 01:27:33;;;;;;;5.83;2.67;;;9.30;99.90;8.50;98953;;;;600295;236;24051;-77
2023/03/31 01:30:31;;;;;;;6.62;4.55;;;9.30;99.90;8.60;98949;;;;578956;237;35094;-81
2023/03/31 01:33:38;;;;;;;10.40;4.03;;;9.30;99.90;8.60;98944;;;;584433;241;24081;-76
2023/03/31 01:36:12;;;;;;;8.83;3.87;;;9.40;99.90;8.60;98938;;;;584174;241;24107;-76
2023/03/31 01:39:36;;;;;;;5.47;4.00;;;9.40;99.90;8.70;98935;;;;595388;236;24028;-79
2023/03/31 01:42:34;;;;;;;6.40;3.30;;;9.40;99.90;8.60;98944;;;;598025;236;24032;-77
2023/03/31 01:45:17;;;;;;;9.07;3.83;;;9.40;99.90;8.60;98942;;;;585286;241;24079;-76
2023/03/31 01:47:48;;;;;;;5.00;3.83;;;9.30;99.90;8.60;98945;;;;594358;241;24079;-82
2023/03/31 01:50:35;;;;;;;6.63;3.00;;;9.30;99.90;8.50;98933;;;;596801;236;24157;-77
2023/03/31 01:53:39;;;;;;;3.73;3.27;;;9.30;99.90;8.50;98937;;;;596577;236;24077;-81
2023/03/31 01:56:10;;;;;;;5.97;4.00;;;9.20;99.90;8.40;98937;;;;596793;236;25113;-80
2023/03/31 01:58:38;;;;;;;16.20;3.90;;;9.20;99.90;8.40;98931;;;;605820;236;24076;-80
2023/03/31 02:01:06;;;;;;;8.70;3.83;;;9.10;99.90;8.40;98930;;;;607216;235;24083;-80
2023/03/31 02:03:37;;;;;;;7.97;4.40;;;9.10;99.90;8.40;98931;;;;605574;236;24052;-76
2023/03/31 02:06:07;;;;;;;9.20;4.13;;;9.20;99.90;8.40;98938;;;;606514;236;24079;-76
2023/03/31 02:08:39;;;;;;;8.10;4.23;;;9.20;99.90;8.40;98936;;;;607039;236;24058;-78
2023/03/31 02:11:07;;;;;;;8.67;4.07;;;9.10;99.90;8.40;98925;;;;596796;236;24053;-75
2023/03/31 02:13:35;;;;;;;6.80;4.03;;;9.20;99.90;8.30;98928;;;;595660;236;24090;-80
2023/03/31 02:16:02;;;;;;;3.67;3.20;;;9.10;99.90;8.30;98918;;;;596849;236;24057;-77
2023/03/31 02:18:32;;;;;;;6.50;3.90;;;9.10;99.90;8.30;98920;;;;605907;236;24061;-76
2023/03/31 02:20:59;;;;;;;6.07;3.27;;;9.00;99.90;8.30;98914;;;;596549;236;25110;-76
2023/03/31 02:23:28;;;;;;;8.80;3.70;;;9.00;99.90;8.20;98914;;;;606148;232;24045;-76
2023/03/31 02:25:56;;;;;;;7.10;3.27;;;8.90;99.90;8.20;98906;;;;606458;232;24054;-76
2023/03/31 02:28:23;;;;;;;3.87;3.30;;;8.90;99.90;8.10;98908;;;;605228;236;24038;-76
2023/03/31 02:31:06;;;;;;;3.43;2.90;;;8.90;99.90;8.00;98914;;;;606462;236;24110;-76
2023/03/31 02:33:35;;;;;;;9.83;3.50;;;8.80;99.90;8.00;98911;;;;600730;234;24044;-77
2023/03/31 02:36:03;;;;;;;12.00;3.30;;;8.70;99.90;8.00;98907;;;;596379;236;24091;-76
2023/03/31 02:38:34;;;;;;;6.03;2.77;;;8.80;99.90;8.00;98904;;;;606257;236;24092;-78
2023/03/31 02:41:02;;;;;;;3.90;3.10;;;8.80;99.90;8.10;98906;;;;606001;236;24044;-78
2023/03/31 02:43:30;;;;;;;4.37;2.60;;;8.80;99.90;8.10;98899;;;;596696;236;24041;-78
2023/03/31 02:45:58;;;;;;;3.57;2.87;;;8.80;99.90;8.10;98899;;;;606148;236;24086;-75
2023/03/31 02:48:29;;;;;;;3.80;3.13;;;8.80;99.90;8.10;98902;;;;596776;236;24040;-75
2023/03/31 02:51:27;;;;;;;6.53;3.40;;;8.80;99.90;8.10;98887;;;;596637;236;24046;-75
2023/03/31 02:54:04;;;;;;;8.03;2.97;;;8.80;99.90;8.00;98883;;;;606193;233;24036;-76
2023/03/31 02:56:59;;;;;;;6.03;3.30;;;8.80;99.90;7.90;98889;;;;596693;236;24036;-77
2023/03/31 02:59:45;;;;;;;3.53;2.70;;;8.70;99.90;7.80;98889;;;;605260;236;24048;-78
2023/03/31 03:02:21;;;;;;;8.40;3.13;;;8.60;99.90;7.80;98894;;;;596251;236;24071;-80
2023/03/31 03:05:10;;;;;;;4.50;2.87;;;8.60;99.90;7.80;98896;;;;596724;236;24048;-80
2023/03/31 03:07:41;;;;;;;6.67;3.17;;;8.50;99.90;7.80;98901;;;;594977;236;24182;-78
2023/03/31 03:10:34;;;;;;;5.27;2.77;;;8.50;99.90;7.80;98899;;;;594890;236;24175;-79
2023/03/31 03:13:29;;;;;;;4.77;3.10;;;8.60;99.90;7.80;98885;;;;602508;236;24031;-78
2023/03/31 03:16:12;;;;;;;5.70;3.00;;;8.70;99.90;7.90;98888;;;;597305;236;24109;-77
2023/03/31 03:18:38;;;;;;;6.47;3.37;;;8.60;99.90;8.00;98895;;;;601714;236;24060;-77
2023/03/31 03:21:06;;;;;;;9.27;3.37;;;8.70;99.90;8.00;98888;;;;597177;236;24182;-77
2023/03/31 03:23:33;;;;;;;7.23;3.83;;;8.70;99.90;8.00;98890;;;;596900;236;24094;-77
2023/03/31 03:26:01;;;;;;;12.60;4.00;;;8.80;99.90;8.10;98896;;;;596923;236;24060;-77
2023/03/31 03:28:29;;;;;;;6.97;3.67;;;8.80;99.90;8.10;98895;;;;597016;236;24060;-77
2023/03/31 03:30:57;;;;;;;9.47;4.07;;;8.80;99.90;8.10;98894;;;;596611;236;24054;-77
2023/03/31 03:33:25;;;;;;;6.17;4.03;;;8.80;99.90;8.20;98898;;;;597143;236;24063;-78
2023/03/31 03:35:53;;;;;;;6.00;3.30;;;8.90;99.90;8.20;98902;;;;597088;236;24173;-77
2023/03/31 03:38:21;;;;;;;5.33;4.00;;;8.90;99.90;8.20;98905;;;;597001;236;24106;-76
2023/03/31 03:40:49;;;;;;;3.67;3.37;;;9.00;99.90;8.30;98911;;;;596707;236;25111;-77
2023/03/31 03:43:16;;;;;;;3.67;3.17;;;9.00;99.90;8.30;98905;;;;605727;232;24164;-76
2023/03/31 03:45:50;;;;;;;4.70;3.73;;;9.00;99.90;8.30;98908;;;;596867;236;24032;-76
2023/03/31 03:48:18;;;;;;;5.70;3.83;;;9.10;99.90;8.30;98904;;;;595896;236;24111;-75
2023/03/31 03:50:43;;;;;;;8.20;4.00;;;9.10;99.90;8.40;98906;;;;596333;236;24144;-77
2023/03/31 03:53:11;;;;;;;5.87;3.57;;;9.20;99.90;8.40;98903;;;;605532;236;25078;-76
2023/03/31 03:55:39;;;;;;;4.93;3.73;;;9.20;99.90;8.40;98896;;;;596341;236;24114;-81
2023/03/31 03:58:07;;;;;;;10.07;5.60;;;9.20;99.90;8.40;98895;;;;591562;236;35057;-79
2023/03/31 04:00:36;;;;;;;9.23;4.40;;;9.10;99.90;8.30;98897;;;;596540;236;24054;-77
2023/03/31 04:03:04;;;;;;;5.77;4.30;;;9.10;99.90;8.30;98891;;;;596551;236;24119;-78
2023/03/31 04:05:31;;;;;;;7.17;3.77;;;9.10;99.90;8.30;98888;;;;596386;236;24079;-78
2023/03/31 04:07:59;;;;;;;6.57;3.93;;;9.10;99.90;8.30;98885;;;;596596;236;24141;-78
2023/03/31 04:10:27;;;;;;;4.80;3.43;;;9.10;99.90;8.30;98887;;;;596462;236;24089;-77
2023/03/31 04:12:56;;;;;;;5.63;3.17;;;9.20;99.90;8.40;98882;;;;596267;236;24048;-74
2023/03/31 04:15:24;;;;;;;9.90;3.30;;;9.10;99.90;8.40;98876;;;;596454;236;24023;-77
2023/03/31 04:17:53;;;;;;;7.97;3.73;;;9.20;99.90;8.40;98875;;;;596368;236;24115;-76
2023/03/31 04:20:20;;;;;;;6.90;3.77;;;9.20;99.90;8.40;98870;;;;596425;236;24052;-78
2023/03/31 04:22:49;;;;;;;6.03;4.00;;;9.20;99.90;8.40;98866;;;;597086;236;24125;-79
2023/03/31 04:25:16;;;;;;;9.83;3.27;;;9.20;99.90;8.50;98868;;;;597621;232;24056;-77
2023/03/31 04:27:54;;;;;;;9.43;4.10;;;9.20;99.90;8.50;98860;;;;597455;236;24082;-76
2023/03/31 04:30:21;;;;;;;6.70;4.30;;;9.30;99.90;8.50;98856;;;;604988;236;24097;-76
2023/03/31 04:32:41;;;;;;;6.27;3.70;;;9.30;99.90;8.60;98864;;;;596468;236;24112;-76
2023/03/31 04:35:09;;;;;;;5.23;3.80;;;9.30;99.90;8.60;98861;;;;597372;236;24057;-76
2023/03/31 04:37:37;;;;;;;5.80;4.30;;;9.30;99.90;8.60;98857;;;;597419;236;24014;-76
2023/03/31 04:40:07;;;;;;;7.53;4.20;;;9.30;99.90;8.60;98847;;;;597371;236;24063;-76
2023/03/31 04:42:36;;;;;;;5.83;4.10;;;9.40;99.90;8.60;98852;;;;606086;233;24017;-78
2023/03/31 04:45:03;;;;;;;11.07;4.77;;;9.40;99.90;8.60;98843;;;;596764;236;24080;-76
2023/03/31 04:47:31;;;;;;;8.43;4.70;;;9.40;99.90;8.70;98840;;;;600681;236;24078;-76
2023/03/31 04:49:59;;;;;;;8.47;4.83;;;9.50;99.90;8.70;98837;;;;596859;236;24033;-77
2023/03/31 04:52:27;;;;;;;9.80;4.80;;;9.50;99.90;8.80;98830;;;;596684;236;24098;-75
2023/03/31 04:54:56;;;;;;;9.63;4.83;;;9.60;99.90;8.80;98834;;;;596557;236;24023;-75
2023/03/31 04:57:27;;;;;;;7.53;5.50;;;9.50;99.90;8.80;98829;;;;596688;236;24051;-75
2023/03/31 04:59:52;;;;;;;15.57;8.20;;;9.60;99.90;8.90;98823;;;;590994;236;35121;-76
2023/03/31 05:02:23;;;;;;;8.07;5.30;;;9.70;99.90;8.90;98819;;;;596483;236;24055;-76
2023/03/31 05:04:47;;;;;;;8.03;5.27;;;9.70;99.90;9.00;98826;;;;596233;236;24028;-76
2023/03/31 05:07:16;;;;;;;5.50;4.87;;;9.90;99.90;9.10;98825;;;;596601;236;24055;-76
2023/03/31 05:09:48;;;;;;;9.03;4.37;;;9.90;99.90;9.20;98824;;;;596420;236;25145;-77
2023/03/31 05:12:13;;;;;;;10.23;4.67;;;9.90;99.90;9.20;98822;;;;605447;236;24108;-81
2023/03/31 05:14:41;;;;;;;5.57;4.23;;;10.00;99.90;9.20;98820;;;;596502;236;24128;-81
2023/03/31 05:17:08;;;;;;;7.73;4.60;;;10.00;99.90;9.30;98824;;;;596306;236;24088;-81
2023/03/31 05:19:36;;;;;;;9.17;5.60;;;10.00;99.90;9.30;98824;;;;596448;236;24051;-80
2023/03/31 05:22:04;;;;;;;10.83;6.23;;;10.10;99.90;9.30;98816;;;;591186;236;35134;-80
2023/03/31 05:24:32;;;;;;;8.70;5.60;;;10.10;99.90;9.30;98816;;;;596356;236;24167;-81
2023/03/31 05:27:04;;;;;;;10.77;4.90;;;10.10;99.90;9.40;98820;;;;596459;236;26379;-79
2023/03/31 05:29:30;;;;;;;7.50;4.90;;;10.10;99.90;9.40;98820;;;;605473;233;24099;-81
2023/03/31 05:31:57;;;;;;;7.27;5.20;;;10.20;99.90;9.40;98822;;;;596356;236;24055;-82
2023/03/31 05:34:25;;;;;;;7.63;4.70;;;10.20;99.90;9.50;98828;;;;597182;236;24119;-79
2023/03/31 05:36:53;;;;;;;6.50;4.73;;;10.20;99.90;9.50;98824;;;;607659;236;24086;-80
2023/03/31 05:39:21;;;;;;;8.57;4.43;;;10.20;99.90;9.50;98821;;;;597839;236;24048;-81
2023/03/31 05:41:48;;;;;;;13.03;4.90;;;10.20;99.90;9.50;98815;;;;597672;236;24111;-79
2023/03/31 05:44:19;;;;;;;9.13;5.70;;;10.20;99.90;9.50;98824;;;;597112;236;24070;-76
2023/03/31 05:46:44;;;;;;;5.37;4.87;;;10.30;99.90;9.50;98818;;;;596758;236;24045;-77
2023/03/31 05:49:15;;;;;;;4.43;4.03;;;10.30;99.90;9.60;98819;;;;597115;236;24041;-80
2023/03/31 05:51:40;;;;;;;10.97;5.30;;;10.30;99.90;9.60;98822;;;;596801;236;24082;-76
2023/03/31 05:54:08;;;;;;;9.37;4.53;;;10.40;99.90;9.70;98822;;;;596610;236;24110;-77
2023/03/31 05:56:36;;;;;;;8.23;5.37;;;10.40;99.90;9.70;98822;;;;596710;236;24035;-77
2023/03/31 05:59:04;;;;;;;7.33;4.70;;;10.40;99.90;9.80;98826;;;;596667;236;24056;-76
2023/03/31 06:01:32;;;;;;;7.40;4.67;;;10.50;99.90;9.80;98821;;;;597146;236;24084;-79
2023/03/31 06:04:00;;;;;;;9.20;5.37;;;10.50;99.90;9.90;98822;;;;597082;236;24022;-76
2023/03/31 06:06:28;;;;;;;6.97;4.03;;;10.70;99.90;10.00;98815;;;;597160;236;24011;-77
2023/03/31 06:08:56;;;;;;;7.20;4.13;;;10.70;99.90;10.10;98808;;;;597126;236;24025;-77
2023/03/31 06:11:24;;;;;;;16.83;6.70;;;10.80;99.90;10.20;98807;;;;591737;236;34950;-77
2023/03/31 06:13:52;;;;;;;12.23;5.20;;;10.90;99.90;10.20;98807;;;;596801;236;24056;-77
2023/03/31 06:16:20;;;;;;;14.50;4.67;;;10.90;99.90;10.30;98805;;;;596817;236;24064;-77
2023/03/31 06:18:50;;;;;;;12.23;6.17;;;11.00;99.90;10.40;98804;;;;596779;236;24020;-77
2023/03/31 06:21:16;;;;;;;9.47;5.13;;;11.30;99.90;10.60;98805;;;;596795;236;24026;-77
2023/03/31 06:23:45;;;;;;;6.90;4.10;;;11.40;99.90;10.60;98805;;;;596941;236;24111;-77
2023/03/31 06:26:16;;;;;;;6.80;4.03;;;11.30;99.90;10.70;98811;;;;596844;236;24076;-77
2023/03/31 06:28:44;;;;;;;7.83;4.50;;;11.40;99.90;10.70;98810;;;;606326;233;24175;-76
2023/03/31 06:31:12;;;;;;;6.67;4.37;;;11.50;99.90;10.70;98809;;;;596727;236;24067;-77
2023/03/31 06:33:40;;;;;;;8.20;4.73;;;11.50;99.90;10.70;98796;;;;606204;236;24086;-78
2023/03/31 06:36:09;;;;;;;8.23;4.40;;;11.50;99.90;10.70;98802;;;;596764;236;24094;-77
2023/03/31 06:38:37;;;;;;;5.23;4.17;;;11.50;99.90;10.70;98813;;;;605752;236;24071;-77
2023/03/31 06:41:05;;;;;;;9.47;5.07;;;11.40;99.90;10.60;98811;;;;594926;236;24096;-77
2023/03/31 06:43:33;;;;;;;6.37;4.40;;;11.40;99.90;10.60;98810;;;;605864;233;24084;-76
2023/03/31 06:46:01;;;;;;;7.70;5.47;;;11.30;99.90;10.60;98808;;;;597516;236;24063;-79
2023/03/31 06:48:28;;;;;;;8.17;4.83;;;11.30;99.90;10.50;98805;;;;607659;236;24068;-81
2023/03/31 06:50:56;;;;;;;9.00;5.07;;;11.20;99.90;10.50;98812;;;;607422;236;24109;-80
2023/03/31 06:53:24;;;;;;;8.37;5.37;;;11.20;99.90;10.60;98804;;;;607006;236;24073;-81
2023/03/31 06:55:55;;;;;;;10.80;5.30;;;11.20;99.90;10.60;98811;;;;597536;236;24038;-76
2023/03/31 06:58:20;;;;;;;9.03;4.83;;;11.30;99.90;10.70;98804;;;;596667;236;24115;-78
2023/03/31 07:00:52;;;;;;;10.63;5.33;;;11.40;99.90;10.70;98805;;;;597475;236;24037;-80
2023/03/31 07:03:17;;;;;;;8.63;5.70;;;11.40;99.90;10.80;98809;;;;606693;236;24065;-77
2023/03/31 07:05:53;;;;;;;7.87;5.33;;;11.50;99.90;10.80;98814;;;;596988;236;24071;-76
2023/03/31 07:08:22;;;;;;;9.47;6.07;;;11.70;99.90;11.00;98812;;;;601768;236;24073;-76
2023/03/31 07:10:50;;;;;;;10.43;5.77;;;11.70;99.90;11.20;98813;;;;606235;236;24124;-81
2023/03/31 07:13:15;;;;;;;15.33;5.87;;;11.80;99.90;11.20;98813;;;;596760;236;24018;-83
2023/03/31 07:15:43;;;;;;;8.10;5.33;;;11.90;99.90;11.30;98809;;;;606614;236;24061;-79
2023/03/31 07:18:11;;;;;;;7.33;5.10;;;12.00;99.90;11.50;98795;;;;597099;232;24098;-79
2023/03/31 07:20:38;;;;;;;9.20;5.23;;;12.10;99.90;11.70;98800;;;;596941;236;24021;-79
2023/03/31 07:23:07;;;;;;;10.33;5.53;;;12.40;99.90;12.00;98803;;;;596905;232;24040;-77
2023/03/31 07:25:34;;;;;;;10.07;4.87;;;12.60;99.90;12.40;98813;;;;606131;236;24070;-76
2023/03/31 07:28:05;;;;;;;7.00;4.30;;;13.00;99.90;12.60;98809;;;;596638;236;24072;-77
2023/03/31 07:30:30;;;;;;;8.47;4.67;;;13.20;99.90;12.70;98807;;;;605916;236;24052;-76
2023/03/31 07:32:58;;;;;;;8.77;4.57;;;13.30;99.90;12.90;98803;;;;596821;236;24076;-77
2023/03/31 07:35:27;;;;;;;14.33;6.17;;;13.70;99.90;13.10;98807;;;;596767;236;24036;-76
2023/03/31 07:37:55;;;;;;;18.07;5.60;;;13.70;99.90;13.30;98803;;;;596747;236;24059;-76
2023/03/31 07:40:23;;;;;;;15.13;4.73;;;14.00;99.90;13.40;98799;;;;596576;236;24149;-78
2023/03/31 07:42:51;;;;;;;8.27;4.23;;;14.10;99.90;13.20;98806;;;;596023;236;24079;-78
2023/03/31 07:45:22;;;;;;;7.83;3.97;;;14.00;99.90;13.10;98798;;;;596308;236;24040;-76
2023/03/31 07:47:46;;;;;;;9.20;3.70;;;13.90;99.90;12.90;98796;;;;596074;236;24069;-77
2023/03/31 07:50:14;;;;;;;6.00;3.20;;;13.70;99.90;12.80;98798;;;;596885;236;24052;-79
2023/03/31 07:52:43;;;;;;;6.83;4.30;;;13.40;99.90;12.70;98791;;;;601070;236;36814;-79
2023/03/31 07:55:11;;;;;;;13.60;4.70;;;13.40;99.90;12.70;98794;;;;591679;236;35051;-80
2023/03/31 07:57:40;;;;;;;9.50;3.90;;;13.40;99.90;12.70;98788;;;;601508;236;24085;-81
2023/03/31 08:00:07;;;;;;;7.27;3.80;;;13.40;99.90;12.70;98783;;;;597682;236;24028;-81
2023/03/31 08:02:35;;;;;;;5.23;3.53;;;13.40;99.90;13.10;98784;;;;597149;236;25105;-79
2023/03/31 08:05:02;;;;;;;3.60;3.17;;;13.60;99.90;13.70;98781;;;;597338;236;24037;-82
2023/03/31 08:07:30;;;;;;;7.87;3.60;;;14.20;99.90;14.90;98792;;;;595580;236;24032;-76
2023/03/31 08:09:58;;;;;;;5.43;3.00;;;15.10;99.90;15.30;98788;;;;606383;236;24035;-78
2023/03/31 08:12:26;;;;;;;5.40;3.30;;;15.80;99.90;15.20;98792;;;;597007;236;24032;-80
2023/03/31 08:14:54;;;;;;;6.37;3.20;;;15.90;99.90;15.50;98796;;;;596907;236;24071;-78
2023/03/31 08:17:25;;;;;;;3.87;3.07;;;16.10;99.90;15.70;98787;;;;596783;236;24045;-77
2023/03/31 08:19:50;;;;;;;6.27;3.13;;;16.30;99.90;15.50;98784;;;;596448;236;24102;-81
2023/03/31 08:22:19;;;;;;;5.57;2.87;;;16.20;99.90;15.40;98772;;;;596709;236;24066;-78
2023/03/31 08:24:47;;;;;;;6.33;2.90;;;16.10;99.90;15.40;98778;;;;606139;236;24045;-78
2023/03/31 08:27:18;;;;;;;4.93;2.70;;;16.10;99.90;16.80;98771;;;;596581;236;24055;-80
2023/03/31 08:29:43;;;;;;;4.27;2.80;;;17.00;99.90;18.40;98779;;;;596575;236;24085;-81
2023/03/31 08:32:11;;;;;;;5.30;2.90;;;18.60;99.90;18.70;98769;;;;596612;236;24006;-80
2023/03/31 08:34:41;;;;;;;4.73;2.50;;;19.60;99.90;19.00;98771;;;;596519;236;24087;-77
2023/03/31 08:37:08;;;;;;;6.03;2.80;;;20.20;99.90;19.90;98768;;;;596303;236;23139;-77
2023/03/31 08:39:36;;;;;;;4.37;2.50;;;20.20;99.90;21.60;98774;;;;607046;236;23104;-80
2023/03/31 08:42:07;;;;;;;8.77;2.80;;;21.80;99.90;22.00;98768;;;;596754;236;24050;-77
2023/03/31 08:44:50;;;;;;;12.13;4.03;;;22.60;99.20;21.60;98765;;;;605499;236;24075;-77
2023/03/31 08:47:18;;;;;;;2.73;2.07;;;22.50;96.50;20.70;98770;;;;600819;233;24036;-77
2023/03/31 08:49:48;;;;;;;3.73;2.47;;;21.80;95.50;19.70;98769;;;;606077;236;24015;-75
2023/03/31 08:52:16;;;;;;;10.23;3.93;;;20.90;96.40;19.10;98762;;;;596761;236;24065;-77
2023/03/31 08:54:48;;;;;;;6.50;3.37;;;20.10;97.80;18.40;98764;;;;605921;236;24030;-76
2023/03/31 08:57:33;;;;;;;4.47;2.40;;;19.40;98.80;17.90;98762;;;;607281;236;24091;-78
2023/03/31 09:00:05;;;;;;;4.17;2.37;;;18.20;99.90;17.30;98766;;;;605701;236;24108;-76
2023/03/31 09:02:53;;;;;;;4.17;2.33;;;18.10;99.90;17.20;98768;;;;596549;236;24046;-77
2023/03/31 09:05:27;;;;;;;7.30;2.60;;;17.80;99.90;17.40;98765;;;;574680;245;24092;-77
2023/03/31 09:08:04;;;;;;;3.40;2.47;;;17.90;99.90;17.20;98769;;;;587779;237;24159;-76
2023/03/31 09:10:56;;;;;;;6.30;2.37;;;17.80;99.90;16.90;98764;;;;595939;239;23075;-81
2023/03/31 09:13:45;;;;;;;4.97;2.50;;;17.60;99.90;16.90;98760;;;;581697;240;35159;-82
2023/03/31 09:16:16;;;;;;;4.80;2.30;;;17.50;99.90;16.90;98760;;;;586155;240;24079;-80
2023/03/31 09:18:46;;;;;;;4.80;2.75;;;17.50;99.90;17.00;98757;;;;589452;241;35066;-78
2023/03/31 09:21:32;;;;;;;12.63;3.43;;;17.60;99.90;17.10;98758;;;;585960;241;24124;-80
2023/03/31 09:24:15;;;;;;;10.20;2.30;;;17.70;99.90;16.80;98761;;;;581339;245;24060;-79
2023/03/31 09:26:48;;;;;;;4.43;2.73;;;17.50;99.90;16.40;98752;;;;584369;241;24147;-77
2023/03/31 09:29:18;;;;;;;2.97;2.33;;;17.10;99.90;16.00;98753;;;;591210;241;24122;-81
2023/03/31 09:31:45;;;;;;;4.43;2.37;;;16.40;99.90;15.60;98755;;;;570882;241;24080;-76
2023/03/31 09:34:16;;;;;;;5.13;2.20;;;16.30;99.90;15.30;98751;;;;583608;241;24105;-82
2023/03/31 09:36:43;;;;;;;3.30;2.40;;;16.00;99.90;15.00;98759;;;;584631;241;24094;-79
2023/03/31 09:39:14;;;;;;;3.40;1.73;;;15.70;99.90;14.70;98751;;;;595200;240;24133;-77
2023/03/31 09:41:42;;;;;;;3.57;1.97;;;15.40;99.90;14.40;98760;;;;593393;241;24065;-77
2023/03/31 09:44:16;;;;;;;3.67;2.00;;;15.10;99.90;14.10;98754;;;;584174;241;24125;-76
2023/03/31 09:46:44;;;;;;;5.07;2.30;;;14.80;99.90;14.00;98759;;;;572478;241;24061;-76
2023/03/31 09:49:14;;;;;;;5.20;2.27;;;14.60;99.90;13.90;98756;;;;590046;241;24043;-74
2023/03/31 09:51:42;;;;;;;3.00;1.90;;;14.50;99.90;13.80;98756;;;;593029;241;24070;-75
2023/03/31 09:54:22;;;;;;;3.43;1.83;;;14.40;99.90;13.70;98765;;;;591937;241;24123;-77
2023/03/31 09:56:53;;;;;;;6.57;2.50;;;14.30;99.90;13.70;98755;;;;582819;241;24094;-78
2023/03/31 09:59:18;;;;;;;3.50;1.70;;;14.30;99.90;13.60;98742;;;;591606;241;24106;-75
2023/03/31 10:01:49;;;;;;;3.90;2.30;;;14.20;99.90;13.50;98745;;;;582801;241;24145;-75
2023/03/31 10:04:16;;;;;;;9.97;2.03;;;14.20;99.90;13.50;98745;;;;583369;241;24079;-77
2023/03/31 10:06:47;;;;;;;4.43;2.23;;;14.20;99.90;13.60;98744;;;;592739;241;24082;-75
2023/03/31 10:09:13;;;;;;;6.27;1.90;;;14.20;99.90;13.60;98751;;;;589203;241;24059;-76
2023/03/31 10:11:41;;;;;;;6.20;2.07;;;14.20;99.90;13.50;98755;;;;589602;241;24057;-77
2023/03/31 10:14:18;;;;;;;4.37;1.93;;;14.20;99.90;13.40;98755;;;;591998;241;24101;-78
2023/03/31 10:16:48;;;;;;;8.40;2.60;;;14.10;99.90;13.30;98757;;;;589385;241;24149;-77
2023/03/31 10:19:21;;;;;;;3.70;2.07;;;14.00;99.90;13.20;98755;;;;591320;241;24127;-77
2023/03/31 10:21:55;;;;;;;3.73;1.90;;;13.80;99.90;13.10;98754;;;;584369;241;24052;-76
2023/03/31 10:24:23;;;;;;;4.47;2.10;;;13.80;99.90;13.00;98753;;;;585321;241;24065;-77
2023/03/31 10:26:54;;;;;;;4.20;2.30;;;13.60;99.90;12.80;98754;;;;596057;240;24060;-76
2023/03/31 10:29:24;;;;;;;6.40;2.73;;;13.40;99.90;12.70;98756;;;;592636;241;24067;-76
2023/03/31 10:31:50;;;;;;;4.17;2.40;;;13.40;99.90;12.70;98754;;;;593877;241;24097;-76
2023/03/31 10:34:21;;;;;;;3.60;2.27;;;13.30;99.90;12.70;98756;;;;595751;240;24155;-76
2023/03/31 10:36:46;;;;;;;4.60;2.33;;;13.40;99.90;12.80;98757;;;;584690;241;24085;-76
2023/03/31 10:39:16;;;;;;;3.47;2.17;;;13.40;99.90;12.90;98755;;;;590963;241;24081;-75
2023/03/31 10:41:44;;;;;;;3.87;2.77;;;13.50;99.90;13.10;98753;;;;595351;236;24044;-78
2023/03/31 10:44:37;;;;;;;3.50;2.57;;;13.70;99.90;13.30;98756;;;;593583;241;24062;-75
2023/03/31 10:47:14;;;;;;;10.70;2.53;;;13.80;99.90;13.40;98758;;;;594221;241;24105;-76
2023/03/31 10:49:41;;;;;;;3.53;2.33;;;14.00;99.90;13.50;98762;;;;585143;241;24162;-75
2023/03/31 10:52:22;;;;;;;4.93;2.00;;;14.10;99.90;13.60;98751;;;;594165;241;24072;-76
2023/03/31 10:55:03;;;;;;;2.53;2.13;;;14.40;99.90;13.90;98757;;;;593548;241;24120;-77
2023/03/31 10:57:36;;;;;;;5.43;2.50;;;14.60;99.90;14.00;98757;;;;583695;241;24125;-77
2023/03/31 11:00:11;;;;;;;6.23;2.53;;;14.60;99.90;14.20;98749;;;;557297;256;24159;-76
2023/03/31 11:02:46;;;;;;;12.03;3.23;;;14.80;99.90;14.40;98751;;;;582342;241;24073;-76
2023/03/31 11:05:30;;;;;;;7.87;2.83;;;15.00;99.90;14.60;98746;;;;592668;241;24087;-76
2023/03/31 11:08:22;;;;;;;4.80;2.93;;;15.20;99.90;14.80;98741;;;;589738;241;24093;-75
2023/03/31 11:11:09;;;;;;;3.13;2.30;;;15.40;99.90;14.70;98738;;;;578112;241;24098;-75
2023/03/31 11:13:53;;;;;;;3.07;2.10;;;15.40;99.90;14.60;98752;;;;582627;241;24055;-75
2023/03/31 11:16:25;;;;;;;3.97;2.20;;;15.20;99.90;14.60;98742;;;;589775;241;24058;-78
2023/03/31 11:19:14;;;;;;;3.60;1.70;;;15.40;99.90;14.80;98749;;;;593289;241;24073;-76
2023/03/31 11:22:01;;;;;;;3.93;1.73;;;15.80;99.90;15.20;98751;;;;589509;241;24097;-75
2023/03/31 11:24:38;;;;;;;2.47;1.70;;;16.10;99.90;15.60;98745;;;;579101;241;24113;-76
2023/03/31 11:27:30;;;;;;;3.97;1.70;;;16.10;99.90;16.00;98735;;;;583117;241;24056;-76
2023/03/31 11:30:16;;;;;;;2.60;1.50;;;16.60;99.90;16.30;98743;;;;582652;241;24133;-79
2023/03/31 11:33:21;;;;;;;3.50;1.33;;;16.80;99.90;16.50;98737;;;;584763;240;24058;-76
2023/03/31 11:36:07;;;;;;;2.50;1.50;;;17.10;99.90;17.00;98746;;;;585522;241;24097;-77
2023/03/31 11:38:43;;;;;;;5.57;2.20;;;17.50;99.90;17.20;98732;;;;583568;241;24077;-78
2023/03/31 11:41:14;;;;;;;3.80;2.10;;;17.80;99.90;17.40;98732;;;;595534;241;23155;-78
2023/03/31 11:44:02;;;;;;;2.90;1.30;;;18.00;99.90;17.60;98725;;;;586065;239;24071;-79
2023/03/31 11:46:29;;;;;;;3.13;1.67;;;18.20;99.90;17.50;98724;;;;596803;236;24022;-76